Terminal Aerodrome Forecast
Issued by NWS Twin Cities, MN

Home | Current Version | Previous Version | Text Only | Print | Product List | Glossary Off
Versions: 1 2 3 4 5 6 7 8 9 10 11 12 13 14 15 16 17 18 19 20

000
FTUS43 KMPX 041335 AAA
TAFSTC
TAF AMD
KSTC 041335Z 0414/0512 14004KT 5SM FU SCT035 SCT250
      TEMPO 0414/0417 2SM FU
     FM041800 18007KT 6SM HZ SCT050 BKN250
     FM050100 17006KT P6SM SKC=

USA.gov is the U.S. government's official web portal to all federal, state and local government web resources and services.